sensor_id;sensor_type;location;lat;lon;timestamp;pressure;altitude;pressure_sealevel;temperature;humidity
66560;BME280;53413;49.878;8.142;2023-04-25T00:00:03;99336.97;;;7.64;100.00
66560;BME280;53413;49.878;8.142;2023-04-25T00:02:32;99335.28;;;7.63;100.00
66560;BME280;53413;49.878;8.142;2023-04-25T00:05:00;99338.69;;;7.65;100.00
66560;BME280;53413;49.878;8.142;2023-04-25T00:07:26;99331.66;;;7.67;100.00
66560;BME280;53413;49.878;8.142;2023-04-25T00:09:52;99333.28;;;7.69;100.00
66560;BME280;53413;49.878;8.142;2023-04-25T00:12:17;99341.84;;;7.73;100.00
66560;BME280;53413;49.878;8.142;2023-04-25T00:14:43;99340.94;;;7.74;100.00
66560;BME280;53413;49.878;8.142;2023-04-25T00:17:10;99338.28;;;7.76;100.00
66560;BME280;53413;49.878;8.142;2023-04-25T00:19:36;99339.84;;;7.80;100.00
66560;BME280;53413;49.878;8.142;2023-04-25T00:22:03;99342.34;;;7.83;100.00
66560;BME280;53413;49.878;8.142;2023-04-25T00:24:28;99338.84;;;7.84;100.00
66560;BME280;53413;49.878;8.142;2023-04-25T00:26:54;99333.81;;;7.79;100.00
66560;BME280;53413;49.878;8.142;2023-04-25T00:29:19;99332.09;;;7.78;100.00
66560;BME280;53413;49.878;8.142;2023-04-25T00:31:45;99332.13;;;7.77;100.00
66560;BME280;53413;49.878;8.142;2023-04-25T00:34:10;99331.47;;;7.72;100.00
66560;BME280;53413;49.878;8.142;2023-04-25T00:36:35;99325.47;;;7.69;100.00
66560;BME280;53413;49.878;8.142;2023-04-25T00:39:01;99337.69;;;7.67;100.00
66560;BME280;53413;49.878;8.142;2023-04-25T00:41:27;99342.91;;;7.67;100.00
66560;BME280;53413;49.878;8.142;2023-04-25T00:43:54;99342.91;;;7.67;100.00
66560;BME280;53413;49.878;8.142;2023-04-25T00:46:19;99348.13;;;7.67;100.00
66560;BME280;53413;49.878;8.142;2023-04-25T00:48:45;99335.09;;;7.67;100.00
66560;BME280;53413;49.878;8.142;2023-04-25T00:51:14;99340.13;;;7.72;100.00
66560;BME280;53413;49.878;8.142;2023-04-25T00:53:41;99334.09;;;7.72;100.00
66560;BME280;53413;49.878;8.142;2023-04-25T00:56:06;99327.16;;;7.70;100.00
66560;BME280;53413;49.878;8.142;2023-04-25T00:58:32;99333.28;;;7.69;100.00
66560;BME280;53413;49.878;8.142;2023-04-25T01:00:57;99331.66;;;7.67;100.00
66560;BME280;53413;49.878;8.142;2023-04-25T01:03:23;99330.78;;;7.66;100.00
66560;BME280;53413;49.878;8.142;2023-04-25T01:05:49;99330.78;;;7.66;100.00
66560;BME280;53413;49.878;8.142;2023-04-25T01:08:16;99327.28;;;7.67;100.00
66560;BME280;53413;49.878;8.142;2023-04-25T01:10:41;99332.38;;;7.70;100.00
66560;BME280;53413;49.878;8.142;2023-04-25T01:13:07;99334.91;;;7.72;100.00
66560;BME280;53413;49.878;8.142;2023-04-25T01:15:32;99333.19;;;7.73;100.00
66560;BME280;53413;49.878;8.142;2023-04-25T01:17:58;99331.47;;;7.72;100.00
66560;BME280;53413;49.878;8.142;2023-04-25T01:20:27;99330.69;;;7.69;100.00
66560;BME280;53413;49.878;8.142;2023-04-25T01:22:54;99328.13;;;7.68;100.00
66560;BME280;53413;49.878;8.142;2023-04-25T01:25:22;99333.34;;;7.68;100.00
66560;BME280;53413;49.878;8.142;2023-04-25T01:27:47;99331.66;;;7.67;100.00
66560;BME280;53413;49.878;8.142;2023-04-25T01:30:13;99336.00;;;7.66;100.00
66560;BME280;53413;49.878;8.142;2023-04-25T01:32:39;99327.34;;;7.66;100.00
66560;BME280;53413;49.878;8.142;2023-04-25T01:35:07;99331.66;;;7.67;100.00
66560;BME280;53413;49.878;8.142;2023-04-25T01:37:45;99329.09;;;7.65;100.00
66560;BME280;53413;49.878;8.142;2023-04-25T01:40:11;99328.25;;;7.65;100.00
66560;BME280;53413;49.878;8.142;2023-04-25T01:42:39;99329.16;;;7.64;100.00
66560;BME280;53413;49.878;8.142;2023-04-25T01:45:07;99331.81;;;7.62;100.00
66560;BME280;53413;49.878;8.142;2023-04-25T01:47:33;99337.81;;;7.64;100.00
66560;BME280;53413;49.878;8.142;2023-04-25T01:50:01;99335.97;;;7.68;100.00
66560;BME280;53413;49.878;8.142;2023-04-25T01:52:26;99329.78;;;7.70;100.00
66560;BME280;53413;49.878;8.142;2023-04-25T01:54:52;99339.34;;;7.70;100.00
66560;BME280;53413;49.878;8.142;2023-04-25T01:57:18;99328.91;;;7.70;100.00
66560;BME280;53413;49.878;8.142;2023-04-25T01:59:44;99331.50;;;7.70;100.00
66560;BME280;53413;49.878;8.142;2023-04-25T02:02:09;99333.28;;;7.69;100.00
66560;BME280;53413;49.878;8.142;2023-04-25T02:04:35;99335.88;;;7.69;100.00
66560;BME280;53413;49.878;8.142;2023-04-25T02:07:00;99329.84;;;7.69;100.00
66560;BME280;53413;49.878;8.142;2023-04-25T02:09:25;99338.56;;;7.68;100.00
66560;BME280;53413;49.878;8.142;2023-04-25T02:11:51;99337.69;;;7.67;100.00
66560;BME280;53413;49.878;8.142;2023-04-25T02:14:16;99334.28;;;7.65;100.00
66560;BME280;53413;49.878;8.142;2023-04-25T02:16:42;99336.88;;;7.67;100.00
66560;BME280;53413;49.878;8.142;2023-04-25T02:19:09;99329.94;;;7.66;100.00
66560;BME280;53413;49.878;8.142;2023-04-25T02:21:35;99325.56;;;7.66;100.00
66560;BME280;53413;49.878;8.142;2023-04-25T02:24:00;99326.47;;;7.65;100.00
66560;BME280;53413;49.878;8.142;2023-04-25T02:26:26;99330.06;;;7.63;100.00
66560;BME280;53413;49.878;8.142;2023-04-25T02:28:51;99328.31;;;7.63;100.00
66560;BME280;53413;49.878;8.142;2023-04-25T02:31:17;99322.34;;;7.60;100.00
66560;BME280;53413;49.878;8.142;2023-04-25T02:33:43;99326.72;;;7.59;100.00
66560;BME280;53413;49.878;8.142;2023-04-25T02:36:08;99320.78;;;7.55;100.00
66560;BME280;53413;49.878;8.142;2023-04-25T02:38:34;99321.69;;;7.54;100.00
66560;BME280;53413;49.878;8.142;2023-04-25T02:40:59;99327.78;;;7.53;100.00
66560;BME280;53413;49.878;8.142;2023-04-25T02:43:25;99320.94;;;7.51;100.00
66560;BME280;53413;49.878;8.142;2023-04-25T02:45:50;99326.25;;;7.48;100.00
66560;BME280;53413;49.878;8.142;2023-04-25T02:48:16;99327.22;;;7.45;100.00
66560;BME280;53413;49.878;8.142;2023-04-25T02:50:41;99326.47;;;7.42;100.00
66560;BME280;53413;49.878;8.142;2023-04-25T02:53:07;99328.31;;;7.39;100.00
66560;BME280;53413;49.878;8.142;2023-04-25T02:55:32;99331.84;;;7.37;100.00
66560;BME280;53413;49.878;8.142;2023-04-25T02:57:58;99329.31;;;7.35;100.00
66560;BME280;53413;49.878;8.142;2023-04-25T03:00:23;99326.72;;;7.35;100.00
66560;BME280;53413;49.878;8.142;2023-04-25T03:02:49;99323.22;;;7.35;100.00
66560;BME280;53413;49.878;8.142;2023-04-25T03:05:14;99312.88;;;7.33;100.00
66560;BME280;53413;49.878;8.142;2023-04-25T03:07:40;99318.09;;;7.33;100.00
66560;BME280;53413;49.878;8.142;2023-04-25T03:10:08;99316.38;;;7.32;100.00
66560;BME280;53413;49.878;8.142;2023-04-25T03:12:33;99323.31;;;7.33;100.00
66560;BME280;53413;49.878;8.142;2023-04-25T03:14:59;99318.91;;;7.34;100.00
66560;BME280;53413;49.878;8.142;2023-04-25T03:17:24;99319.78;;;7.34;100.00
66560;BME280;53413;49.878;8.142;2023-04-25T03:19:49;99319.78;;;7.34;100.00
66560;BME280;53413;49.878;8.142;2023-04-25T03:22:15;99322.41;;;7.34;100.00
66560;BME280;53413;49.878;8.142;2023-04-25T03:24:40;99320.63;;;7.35;100.00
66560;BME280;53413;49.878;8.142;2023-04-25T03:27:06;99317.13;;;7.36;100.00
66560;BME280;53413;49.878;8.142;2023-04-25T03:29:31;99316.19;;;7.38;100.00
66560;BME280;53413;49.878;8.142;2023-04-25T03:31:56;99315.22;;;7.41;100.00
66560;BME280;53413;49.878;8.142;2023-04-25T03:34:21;99315.94;;;7.45;100.00
66560;BME280;53413;49.878;8.142;2023-04-25T03:36:47;99320.31;;;7.44;100.00
66560;BME280;53413;49.878;8.142;2023-04-25T03:39:12;99319.50;;;7.42;100.00
66560;BME280;53413;49.878;8.142;2023-04-25T03:41:38;99322.13;;;7.42;100.00
66560;BME280;53413;49.878;8.142;2023-04-25T03:44:03;99318.53;;;7.45;100.00
66560;BME280;53413;49.878;8.142;2023-04-25T03:46:29;99324.56;;;7.47;100.00
66560;BME280;53413;49.878;8.142;2023-04-25T03:48:54;99328.00;;;7.47;100.00
66560;BME280;53413;49.878;8.142;2023-04-25T03:51:19;99332.28;;;7.50;100.00
66560;BME280;53413;49.878;8.142;2023-04-25T03:53:45;99330.41;;;7.53;100.00
66560;BME280;53413;49.878;8.142;2023-04-25T03:56:10;99324.44;;;7.50;100.00
66560;BME280;53413;49.878;8.142;2023-04-25T03:58:35;99331.47;;;7.48;100.00
66560;BME280;53413;49.878;8.142;2023-04-25T04:01:01;99327.28;;;7.44;100.00
66560;BME280;53413;49.878;8.142;2023-04-25T04:03:32;99324.84;;;7.39;100.00
66560;BME280;53413;49.878;8.142;2023-04-25T04:05:58;99325.06;;;7.33;100.00
66560;BME280;53413;49.878;8.142;2023-04-25T04:08:24;99326.13;;;7.27;100.00
66560;BME280;53413;49.878;8.142;2023-04-25T04:10:49;99327.25;;;7.20;100.00
66560;BME280;53413;49.878;8.142;2023-04-25T04:13:15;99329.28;;;7.12;100.00
66560;BME280;53413;49.878;8.142;2023-04-25T04:15:40;99344.22;;;7.06;100.00
66560;BME280;53413;49.878;8.142;2023-04-25T04:18:06;99349.69;;;6.99;100.00
66560;BME280;53413;49.878;8.142;2023-04-25T04:20:31;99354.22;;;6.93;100.00
66560;BME280;53413;49.878;8.142;2023-04-25T04:22:56;99359.44;;;6.92;100.00
66560;BME280;53413;49.878;8.142;2023-04-25T04:25:22;99355.78;;;6.98;100.00
66560;BME280;53413;49.878;8.142;2023-04-25T04:27:47;99358.09;;;7.07;100.00
66560;BME280;53413;49.878;8.142;2023-04-25T04:30:13;99356.00;;;7.17;100.00
66560;BME280;53413;49.878;8.142;2023-04-25T04:32:38;99355.81;;;7.23;100.00
66560;BME280;53413;49.878;8.142;2023-04-25T04:35:04;99360.16;;;7.22;100.00
66560;BME280;53413;49.878;8.142;2023-04-25T04:37:31;99358.84;;;7.11;100.00
66560;BME280;53413;49.878;8.142;2023-04-25T04:39:57;99365.31;;;6.99;100.00
66560;BME280;53413;49.878;8.142;2023-04-25T04:42:23;99364.63;;;6.93;100.00
66560;BME280;53413;49.878;8.142;2023-04-25T04:44:49;99368.38;;;6.85;100.00
66560;BME280;53413;49.878;8.142;2023-04-25T04:47:15;99373.91;;;6.75;100.00
66560;BME280;53413;49.878;8.142;2023-04-25T04:49:40;99376.69;;;6.69;100.00
66560;BME280;53413;49.878;8.142;2023-04-25T04:52:05;99379.50;;;6.63;100.00
66560;BME280;53413;49.878;8.142;2023-04-25T04:54:31;99383.09;;;6.59;100.00
66560;BME280;53413;49.878;8.142;2023-04-25T04:56:56;99383.25;;;6.54;100.00
66560;BME280;53413;49.878;8.142;2023-04-25T04:59:21;99386.72;;;6.55;100.00
66560;BME280;53413;49.878;8.142;2023-04-25T05:01:47;99388.31;;;6.59;100.00
66560;BME280;53413;49.878;8.142;2023-04-25T05:04:12;99402.72;;;6.69;100.00
66560;BME280;53413;49.878;8.142;2023-04-25T05:06:37;99403.72;;;6.92;100.00
66560;BME280;53413;49.878;8.142;2023-04-25T05:09:03;99399.22;;;7.24;100.00
66560;BME280;53413;49.878;8.142;2023-04-25T05:11:29;99402.91;;;7.67;100.00
66560;BME280;53413;49.878;8.142;2023-04-25T05:13:54;99397.56;;;8.18;100.00
66560;BME280;53413;49.878;8.142;2023-04-25T05:16:20;99398.78;;;8.77;100.00
66560;BME280;53413;49.878;8.142;2023-04-25T05:18:46;99402.25;;;9.40;100.00
66560;BME280;53413;49.878;8.142;2023-04-25T05:21:11;99403.50;;;9.92;100.00
66560;BME280;53413;49.878;8.142;2023-04-25T05:23:37;99412.53;;;10.23;100.00
66560;BME280;53413;49.878;8.142;2023-04-25T05:26:02;99410.34;;;10.32;100.00
66560;BME280;53413;49.878;8.142;2023-04-25T05:28:27;99409.00;;;10.24;100.00
66560;BME280;53413;49.878;8.142;2023-04-25T05:30:53;99407.53;;;9.99;100.00
66560;BME280;53413;49.878;8.142;2023-04-25T05:33:18;99412.81;;;9.78;100.00
66560;BME280;53413;49.878;8.142;2023-04-25T05:35:44;99412.81;;;9.58;100.00
66560;BME280;53413;49.878;8.142;2023-04-25T05:38:10;99424.28;;;9.34;100.00
66560;BME280;53413;49.878;8.142;2023-04-25T05:40:35;99421.72;;;9.12;100.00
66560;BME280;53413;49.878;8.142;2023-04-25T05:43:00;99421.44;;;8.98;100.00
66560;BME280;53413;49.878;8.142;2023-04-25T05:45:26;99424.19;;;8.95;100.00
66560;BME280;53413;49.878;8.142;2023-04-25T05:47:51;99423.66;;;8.86;100.00
66560;BME280;53413;49.878;8.142;2023-04-25T05:50:16;99421.09;;;8.85;100.00
66560;BME280;53413;49.878;8.142;2023-04-25T05:52:42;99420.00;;;8.90;100.00
66560;BME280;53413;49.878;8.142;2023-04-25T05:55:13;99426.47;;;9.02;100.00
66560;BME280;53413;49.878;8.142;2023-04-25T05:57:39;99422.44;;;9.16;100.00
66560;BME280;53413;49.878;8.142;2023-04-25T06:00:08;99417.28;;;9.35;100.00
66560;BME280;53413;49.878;8.142;2023-04-25T06:02:34;99420.94;;;9.51;100.00
66560;BME280;53413;49.878;8.142;2023-04-25T06:05:03;99425.56;;;9.65;100.00
66560;BME280;53413;49.878;8.142;2023-04-25T06:07:28;99428.56;;;9.77;100.00
66560;BME280;53413;49.878;8.142;2023-04-25T06:09:55;99426.41;;;9.86;100.00
66560;BME280;53413;49.878;8.142;2023-04-25T06:12:20;99427.31;;;9.85;100.00
66560;BME280;53413;49.878;8.142;2023-04-25T06:14:45;99433.03;;;9.94;100.00
66560;BME280;53413;49.878;8.142;2023-04-25T06:17:11;99423.50;;;9.93;100.00
66560;BME280;53413;49.878;8.142;2023-04-25T06:19:36;99424.00;;;10.01;100.00
66560;BME280;53413;49.878;8.142;2023-04-25T06:22:02;99430.38;;;10.14;100.00
66560;BME280;53413;49.878;8.142;2023-04-25T06:24:28;99426.66;;;10.39;100.00
66560;BME280;53413;49.878;8.142;2023-04-25T06:26:53;99425.66;;;10.61;100.00
66560;BME280;53413;49.878;8.142;2023-04-25T06:29:25;99429.50;;;10.71;100.00
66560;BME280;53413;49.878;8.142;2023-04-25T06:31:53;99433.97;;;10.69;100.00
66560;BME280;53413;49.878;8.142;2023-04-25T06:34:19;99445.94;;;10.75;100.00
66560;BME280;53413;49.878;8.142;2023-04-25T06:36:44;99440.00;;;10.71;100.00
66560;BME280;53413;49.878;8.142;2023-04-25T06:39:25;99451.41;;;10.70;100.00
66560;BME280;53413;49.878;8.142;2023-04-25T06:41:50;99452.63;;;10.63;100.00
66560;BME280;53413;49.878;8.142;2023-04-25T06:44:17;99446.47;;;10.45;100.00
66560;BME280;53413;49.878;8.142;2023-04-25T06:46:42;99447.16;;;10.29;100.00
66560;BME280;53413;49.878;8.142;2023-04-25T06:52:04;99457.56;;;10.50;100.00
66560;BME280;53413;49.878;8.142;2023-04-25T06:54:30;99458.81;;;10.80;100.00
66560;BME280;53413;49.878;8.142;2023-04-25T06:56:56;99455.72;;;11.26;100.00
66560;BME280;53413;49.878;8.142;2023-04-25T06:59:21;99456.25;;;11.50;100.00
66560;BME280;53413;49.878;8.142;2023-04-25T07:01:47;99458.31;;;11.78;100.00
66560;BME280;53413;49.878;8.142;2023-04-25T07:04:12;99462.22;;;11.87;100.00
66560;BME280;53413;49.878;8.142;2023-04-25T07:06:38;99466.84;;;11.99;100.00
66560;BME280;53413;49.878;8.142;2023-04-25T07:09:10;99466.84;;;11.99;97.58
66560;BME280;53413;49.878;8.142;2023-04-25T07:11:36;99470.19;;;11.85;97.15
66560;BME280;53413;49.878;8.142;2023-04-25T07:14:02;99470.13;;;11.69;97.45
66560;BME280;53413;49.878;8.142;2023-04-25T07:16:27;99471.22;;;11.65;98.69
66560;BME280;53413;49.878;8.142;2023-04-25T07:18:53;99472.28;;;11.61;98.46
66560;BME280;53413;49.878;8.142;2023-04-25T07:21:18;99475.78;;;11.62;97.87
66560;BME280;53413;49.878;8.142;2023-04-25T07:23:44;99479.72;;;11.53;97.52
66560;BME280;53413;49.878;8.142;2023-04-25T07:26:09;99482.88;;;11.42;99.07
66560;BME280;53413;49.878;8.142;2023-04-25T07:28:35;99479.94;;;11.31;98.15
66560;BME280;53413;49.878;8.142;2023-04-25T07:31:00;99483.38;;;11.14;99.37
66560;BME280;53413;49.878;8.142;2023-04-25T07:33:25;99486.47;;;11.04;99.52
66560;BME280;53413;49.878;8.142;2023-04-25T07:35:51;99477.22;;;11.15;100.00
66560;BME280;53413;49.878;8.142;2023-04-25T07:38:17;99480.69;;;11.33;99.26
66560;BME280;53413;49.878;8.142;2023-04-25T07:40:42;99479.16;;;11.46;96.95
66560;BME280;53413;49.878;8.142;2023-04-25T07:43:08;99478.25;;;11.65;96.01
66560;BME280;53413;49.878;8.142;2023-04-25T07:45:33;99478.28;;;11.98;93.51
66560;BME280;53413;49.878;8.142;2023-04-25T07:47:58;99489.47;;;12.52;91.60
66560;BME280;53413;49.878;8.142;2023-04-25T07:50:24;99482.16;;;13.05;89.80
66560;BME280;53413;49.878;8.142;2023-04-25T07:52:50;99482.22;;;14.09;86.71
66560;BME280;53413;49.878;8.142;2023-04-25T07:55:15;99492.13;;;15.31;77.56
66560;BME280;53413;49.878;8.142;2023-04-25T07:57:41;99490.63;;;15.93;74.22
66560;BME280;53413;49.878;8.142;2023-04-25T08:00:07;99493.19;;;16.45;72.23
66560;BME280;53413;49.878;8.142;2023-04-25T08:02:35;99494.13;;;17.43;66.86
66560;BME280;53413;49.878;8.142;2023-04-25T08:05:00;99489.03;;;19.64;61.34
66560;BME280;53413;49.878;8.142;2023-04-25T08:07:25;99489.31;;;21.44;55.19
66560;BME280;53413;49.878;8.142;2023-04-25T08:09:51;99488.25;;;23.60;49.39
66560;BME280;53413;49.878;8.142;2023-04-25T08:12:17;99489.56;;;24.94;44.54
66560;BME280;53413;49.878;8.142;2023-04-25T08:14:43;99489.44;;;25.70;41.51
66560;BME280;53413;49.878;8.142;2023-04-25T08:17:09;99503.63;;;24.88;40.83
66560;BME280;53413;49.878;8.142;2023-04-25T08:19:34;99508.28;;;24.35;40.74
66560;BME280;53413;49.878;8.142;2023-04-25T08:22:00;99510.25;;;23.17;42.26
66560;BME280;53413;49.878;8.142;2023-04-25T08:24:26;99515.59;;;22.06;42.93
66560;BME280;53413;49.878;8.142;2023-04-25T08:26:51;99527.72;;;21.90;44.63
66560;BME280;53413;49.878;8.142;2023-04-25T08:29:16;99512.94;;;22.99;41.56
66560;BME280;53413;49.878;8.142;2023-04-25T08:31:42;99522.09;;;24.56;39.62
66560;BME280;53413;49.878;8.142;2023-04-25T08:34:07;99522.81;;;25.76;38.58
66560;BME280;53413;49.878;8.142;2023-04-25T08:36:33;99519.47;;;27.33;35.86
66560;BME280;53413;49.878;8.142;2023-04-25T08:38:58;99526.88;;;29.19;33.76
66560;BME280;53413;49.878;8.142;2023-04-25T08:41:26;99529.78;;;30.60;33.05
66560;BME280;53413;49.878;8.142;2023-04-25T08:43:53;99526.28;;;30.24;30.80
66560;BME280;53413;49.878;8.142;2023-04-25T08:46:19;99532.66;;;29.16;30.91
66560;BME280;53413;49.878;8.142;2023-04-25T08:48:45;99541.91;;;28.40;32.16
66560;BME280;53413;49.878;8.142;2023-04-25T08:51:15;99542.41;;;28.65;32.13
66560;BME280;53413;49.878;8.142;2023-04-25T08:53:45;99536.84;;;30.19;30.46
66560;BME280;53413;49.878;8.142;2023-04-25T08:56:15;99537.94;;;31.42;29.04
66560;BME280;53413;49.878;8.142;2023-04-25T08:58:43;99531.81;;;32.41;27.33
66560;BME280;53413;49.878;8.142;2023-04-25T09:01:09;99544.91;;;31.02;27.94
66560;BME280;53413;49.878;8.142;2023-04-25T09:03:35;99553.34;;;30.02;29.96
66560;BME280;53413;49.878;8.142;2023-04-25T09:06:03;99540.53;;;29.17;29.67
66560;BME280;53413;49.878;8.142;2023-04-25T09:08:29;99552.84;;;30.20;29.18
66560;BME280;53413;49.878;8.142;2023-04-25T09:10:55;99545.22;;;31.61;27.57
66560;BME280;53413;49.878;8.142;2023-04-25T09:13:26;99548.94;;;31.20;27.98
66560;BME280;53413;49.878;8.142;2023-04-25T09:15:57;99559.28;;;32.51;27.02
66560;BME280;53413;49.878;8.142;2023-04-25T09:18:30;99568.44;;;32.57;26.71
66560;BME280;53413;49.878;8.142;2023-04-25T09:20:58;99572.31;;;30.44;28.60
66560;BME280;53413;49.878;8.142;2023-04-25T09:23:24;99582.22;;;28.18;30.84
66560;BME280;53413;49.878;8.142;2023-04-25T09:25:51;99576.44;;;28.96;30.79
66560;BME280;53413;49.878;8.142;2023-04-25T09:28:23;99581.09;;;30.18;28.96
66560;BME280;53413;49.878;8.142;2023-04-25T09:30:54;99592.53;;;28.60;30.70
66560;BME280;53413;49.878;8.142;2023-04-25T09:33:20;99602.97;;;25.79;33.24
66560;BME280;53413;49.878;8.142;2023-04-25T09:35:45;99605.31;;;23.84;35.65
66560;BME280;53413;49.878;8.142;2023-04-25T09:38:12;99610.78;;;22.25;38.13
66560;BME280;53413;49.878;8.142;2023-04-25T09:40:42;99611.75;;;21.26;39.44
66560;BME280;53413;49.878;8.142;2023-04-25T09:43:24;99611.56;;;20.98;40.66
66560;BME280;53413;49.878;8.142;2023-04-25T09:45:51;99618.56;;;21.89;38.97
66560;BME280;53413;49.878;8.142;2023-04-25T09:48:19;99620.50;;;22.73;38.37
66560;BME280;53413;49.878;8.142;2023-04-25T09:51:07;99631.84;;;22.28;39.49
66560;BME280;53413;49.878;8.142;2023-04-25T09:53:36;99633.78;;;21.28;41.70
66560;BME280;53413;49.878;8.142;2023-04-25T09:56:06;99640.56;;;20.91;41.83
66560;BME280;53413;49.878;8.142;2023-04-25T09:58:33;99631.44;;;21.54;40.61
66560;BME280;53413;49.878;8.142;2023-04-25T10:01:02;99630.75;;;22.11;39.38
66560;BME280;53413;49.878;8.142;2023-04-25T10:03:30;99635.09;;;22.41;39.19
66560;BME280;53413;49.878;8.142;2023-04-25T10:05:58;99633.25;;;22.42;39.06
66560;BME280;53413;49.878;8.142;2023-04-25T10:08:24;99624.34;;;23.17;37.74
66560;BME280;53413;49.878;8.142;2023-04-25T10:10:51;99625.88;;;24.54;36.28
66560;BME280;53413;49.878;8.142;2023-04-25T10:13:17;99631.47;;;24.35;36.73
66560;BME280;53413;49.878;8.142;2023-04-25T10:15:43;99637.94;;;22.68;37.48
66560;BME280;53413;49.878;8.142;2023-04-25T10:18:10;99649.91;;;21.36;40.23
66560;BME280;53413;49.878;8.142;2023-04-25T10:20:35;99643.25;;;20.70;42.88
66560;BME280;53413;49.878;8.142;2023-04-25T10:23:13;99654.97;;;20.36;43.88
66560;BME280;53413;49.878;8.142;2023-04-25T10:25:40;99651.38;;;20.05;44.51
66560;BME280;53413;49.878;8.142;2023-04-25T10:28:06;99662.38;;;19.67;45.16
66560;BME280;53413;49.878;8.142;2023-04-25T10:30:32;99653.53;;;19.46;46.01
66560;BME280;53413;49.878;8.142;2023-04-25T10:32:59;99655.41;;;19.11;45.70
66560;BME280;53413;49.878;8.142;2023-04-25T10:35:27;99654.91;;;19.17;44.27
66560;BME280;53413;49.878;8.142;2023-04-25T10:37:57;99656.25;;;19.12;44.74
66560;BME280;53413;49.878;8.142;2023-04-25T10:40:23;99658.53;;;19.16;45.18
66560;BME280;53413;49.878;8.142;2023-04-25T10:42:48;99659.69;;;19.46;42.88
66560;BME280;53413;49.878;8.142;2023-04-25T10:45:14;99657.91;;;20.12;42.49
66560;BME280;53413;49.878;8.142;2023-04-25T10:47:46;99648.19;;;20.53;42.59
66560;BME280;53413;49.878;8.142;2023-04-25T10:50:13;99649.22;;;20.31;42.39
66560;BME280;53413;49.878;8.142;2023-04-25T10:52:39;99650.16;;;19.76;42.66
66560;BME280;53413;49.878;8.142;2023-04-25T10:55:06;99654.44;;;19.01;43.63
66560;BME280;53413;49.878;8.142;2023-04-25T10:57:40;99667.00;;;18.18;45.35
66560;BME280;53413;49.878;8.142;2023-04-25T11:02:41;99664.03;;;17.74;45.69
66560;BME280;53413;49.878;8.142;2023-04-25T11:05:09;99670.91;;;18.00;45.86
66560;BME280;53413;49.878;8.142;2023-04-25T11:07:44;99668.19;;;18.13;45.57
66560;BME280;53413;49.878;8.142;2023-04-25T11:10:10;99664.25;;;18.42;45.89
66560;BME280;53413;49.878;8.142;2023-04-25T11:12:35;99664.16;;;18.43;44.52
66560;BME280;53413;49.878;8.142;2023-04-25T11:15:03;99669.00;;;18.84;44.24
66560;BME280;53413;49.878;8.142;2023-04-25T11:17:29;99666.94;;;18.53;43.96
66560;BME280;53413;49.878;8.142;2023-04-25T11:19:55;99669.19;;;18.35;44.83
66560;BME280;53413;49.878;8.142;2023-04-25T11:22:22;99679.47;;;18.40;44.88
66560;BME280;53413;49.878;8.142;2023-04-25T11:24:47;99677.13;;;18.24;45.40
66560;BME280;53413;49.878;8.142;2023-04-25T11:27:13;99682.59;;;17.98;46.03
66560;BME280;53413;49.878;8.142;2023-04-25T11:29:38;99679.38;;;17.81;46.38
66560;BME280;53413;49.878;8.142;2023-04-25T11:32:04;99682.13;;;17.80;46.35
66560;BME280;53413;49.878;8.142;2023-04-25T11:34:30;99677.50;;;17.70;46.17
66560;BME280;53413;49.878;8.142;2023-04-25T11:37:05;99672.53;;;17.66;45.00
66560;BME280;53413;49.878;8.142;2023-04-25T11:39:31;99685.38;;;17.35;46.28
66560;BME280;53413;49.878;8.142;2023-04-25T11:41:56;99685.63;;;16.93;46.81
66560;BME280;53413;49.878;8.142;2023-04-25T11:44:22;99685.81;;;16.25;48.25
66560;BME280;53413;49.878;8.142;2023-04-25T11:46:47;99693.03;;;15.68;51.22
66560;BME280;53413;49.878;8.142;2023-04-25T11:49:13;99697.38;;;14.99;51.96
66560;BME280;53413;49.878;8.142;2023-04-25T11:51:45;99698.13;;;14.41;53.75
66560;BME280;53413;49.878;8.142;2023-04-25T11:54:14;99705.63;;;14.19;54.58
66560;BME280;53413;49.878;8.142;2023-04-25T11:56:44;99708.34;;;14.17;54.48
66560;BME280;53413;49.878;8.142;2023-04-25T11:59:10;99703.03;;;14.33;53.72
66560;BME280;53413;49.878;8.142;2023-04-25T12:01:37;99698.66;;;14.62;53.66
66560;BME280;53413;49.878;8.142;2023-04-25T12:04:17;99690.59;;;15.09;52.53
66560;BME280;53413;49.878;8.142;2023-04-25T12:06:44;99692.63;;;15.75;52.14
66560;BME280;53413;49.878;8.142;2023-04-25T12:09:12;99703.56;;;16.23;50.91
66560;BME280;53413;49.878;8.142;2023-04-25T12:11:54;99696.13;;;16.56;49.40
66560;BME280;53413;49.878;8.142;2023-04-25T12:14:22;99692.75;;;17.05;48.01
66560;BME280;53413;49.878;8.142;2023-04-25T12:16:49;99689.78;;;17.47;47.56
66560;BME280;53413;49.878;8.142;2023-04-25T12:19:15;99687.69;;;17.88;45.85
66560;BME280;53413;49.878;8.142;2023-04-25T12:21:42;99699.38;;;17.85;44.98
66560;BME280;53413;49.878;8.142;2023-04-25T12:24:18;99702.22;;;17.58;45.11
66560;BME280;53413;49.878;8.142;2023-04-25T12:26:59;99696.38;;;17.29;44.96
66560;BME280;53413;49.878;8.142;2023-04-25T12:29:26;99699.50;;;17.22;46.62
66560;BME280;53413;49.878;8.142;2023-04-25T12:31:53;99706.06;;;17.04;46.51
66560;BME280;53413;49.878;8.142;2023-04-25T12:34:20;99719.50;;;16.62;48.25
66560;BME280;53413;49.878;8.142;2023-04-25T12:36:46;99713.50;;;16.20;49.04
66560;BME280;53413;49.878;8.142;2023-04-25T12:39:19;99721.22;;;15.68;48.44
66560;BME280;53413;49.878;8.142;2023-04-25T12:41:45;99721.84;;;15.30;49.71
66560;BME280;53413;49.878;8.142;2023-04-25T12:44:12;99721.56;;;15.34;49.91
66560;BME280;53413;49.878;8.142;2023-04-25T12:46:37;99724.94;;;15.51;50.23
66560;BME280;53413;49.878;8.142;2023-04-25T12:49:03;99732.81;;;15.80;48.51
66560;BME280;53413;49.878;8.142;2023-04-25T12:51:29;99725.66;;;16.09;48.15
66560;BME280;53413;49.878;8.142;2023-04-25T12:53:54;99724.34;;;16.42;48.29
66560;BME280;53413;49.878;8.142;2023-04-25T12:56:20;99718.66;;;16.74;47.22
66560;BME280;53413;49.878;8.142;2023-04-25T12:58:45;99714.84;;;16.91;46.47
66560;BME280;53413;49.878;8.142;2023-04-25T13:01:11;99720.78;;;17.08;45.28